sensor_id;sensor_type;location;lat;lon;timestamp;pressure;altitude;pressure_sealevel;temperature;humidity
84663;BME280;74891;59.208;18.220;2024-01-16T00:02:17;99189.22;;;-11.57;77.52
84663;BME280;74891;59.208;18.220;2024-01-16T00:04:43;99152.44;;;-11.84;78.53
84663;BME280;74891;59.208;18.220;2024-01-16T00:07:12;99193.47;;;-11.58;78.55
84663;BME280;74891;59.208;18.220;2024-01-16T00:09:37;99209.25;;;-11.54;78.88
84663;BME280;74891;59.208;18.220;2024-01-16T00:12:03;99208.22;;;-11.52;77.67
84663;BME280;74891;59.208;18.220;2024-01-16T00:14:29;99189.72;;;-11.64;78.30
84663;BME280;74891;59.208;18.220;2024-01-16T00:17:00;99204.88;;;-11.52;77.84
84663;BME280;74891;59.208;18.220;2024-01-16T00:19:26;99214.34;;;-11.54;78.44
84663;BME280;74891;59.208;18.220;2024-01-16T00:21:51;99185.81;;;-11.68;78.21
84663;BME280;74891;59.208;18.220;2024-01-16T00:24:20;99218.72;;;-11.56;77.55
84663;BME280;74891;59.208;18.220;2024-01-16T00:26:48;99214.59;;;-11.57;78.51
84663;BME280;74891;59.208;18.220;2024-01-16T00:29:18;99217.63;;;-11.64;77.08
84663;BME280;74891;59.208;18.220;2024-01-16T00:31:44;99162.59;;;-12.05;77.66
84663;BME280;74891;59.208;18.220;2024-01-16T00:34:12;99217.94;;;-11.78;77.79
84663;BME280;74891;59.208;18.220;2024-01-16T00:36:37;99228.31;;;-11.81;77.45
84663;BME280;74891;59.208;18.220;2024-01-16T00:39:02;99224.03;;;-11.80;78.15
84663;BME280;74891;59.208;18.220;2024-01-16T00:41:28;99229.25;;;-11.82;78.13
84663;BME280;74891;59.208;18.220;2024-01-16T00:43:54;99167.19;;;-12.20;78.25
84663;BME280;74891;59.208;18.220;2024-01-16T00:46:22;99222.34;;;-11.80;77.15
84663;BME280;74891;59.208;18.220;2024-01-16T00:48:47;99231.13;;;-11.84;77.78
84663;BME280;74891;59.208;18.220;2024-01-16T00:51:18;99227.63;;;-11.93;77.57
84663;BME280;74891;59.208;18.220;2024-01-16T00:53:46;99225.69;;;-12.00;78.03
84663;BME280;74891;59.208;18.220;2024-01-16T00:56:12;99234.47;;;-12.04;77.61
84663;BME280;74891;59.208;18.220;2024-01-16T00:58:40;99230.88;;;-12.02;77.96
84663;BME280;74891;59.208;18.220;2024-01-16T01:01:08;99246.91;;;-12.01;77.53
84663;BME280;74891;59.208;18.220;2024-01-16T01:03:36;99247.41;;;-12.08;77.44
84663;BME280;74891;59.208;18.220;2024-01-16T01:06:01;99229.34;;;-12.25;78.23
84663;BME280;74891;59.208;18.220;2024-01-16T01:08:27;99254.31;;;-12.10;77.68
84663;BME280;74891;59.208;18.220;2024-01-16T01:10:55;99264.47;;;-12.10;77.59
84663;BME280;74891;59.208;18.220;2024-01-16T01:13:23;99276.00;;;-12.17;77.57
84663;BME280;74891;59.208;18.220;2024-01-16T01:15:51;99265.31;;;-12.20;77.78
84663;BME280;74891;59.208;18.220;2024-01-16T01:18:19;99261.81;;;-12.19;78.11
84663;BME280;74891;59.208;18.220;2024-01-16T01:20:47;99268.63;;;-12.20;77.81
84663;BME280;74891;59.208;18.220;2024-01-16T01:23:15;99280.16;;;-12.16;78.19
84663;BME280;74891;59.208;18.220;2024-01-16T01:25:41;99269.78;;;-12.24;78.09
84663;BME280;74891;59.208;18.220;2024-01-16T01:28:09;99285.00;;;-12.24;78.36
84663;BME280;74891;59.208;18.220;2024-01-16T01:30:37;99285.00;;;-12.24;78.82
84663;BME280;74891;59.208;18.220;2024-01-16T01:33:06;99295.28;;;-12.25;78.12
84663;BME280;74891;59.208;18.220;2024-01-16T01:35:31;99296.44;;;-12.30;78.09
84663;BME280;74891;59.208;18.220;2024-01-16T01:37:59;99294.94;;;-12.32;77.85
84663;BME280;74891;59.208;18.220;2024-01-16T01:40:24;99282.03;;;-12.40;77.87
84663;BME280;74891;59.208;18.220;2024-01-16T01:42:53;99251.66;;;-12.63;78.12
84663;BME280;74891;59.208;18.220;2024-01-16T01:45:19;99309.47;;;-12.34;77.38
84663;BME280;74891;59.208;18.220;2024-01-16T01:47:50;99307.19;;;-12.37;78.08
84663;BME280;74891;59.208;18.220;2024-01-16T01:50:15;99311.34;;;-12.47;77.00
84663;BME280;74891;59.208;18.220;2024-01-16T01:52:43;99323.78;;;-12.44;77.44
84663;BME280;74891;59.208;18.220;2024-01-16T01:55:11;99334.25;;;-12.49;77.38
84663;BME280;74891;59.208;18.220;2024-01-16T01:57:41;99332.75;;;-12.63;76.95
84663;BME280;74891;59.208;18.220;2024-01-16T02:00:08;99337.25;;;-12.66;77.01
84663;BME280;74891;59.208;18.220;2024-01-16T02:02:34;99285.28;;;-13.06;76.46
84663;BME280;74891;59.208;18.220;2024-01-16T02:04:59;99343.69;;;-12.85;77.05
84663;BME280;74891;59.208;18.220;2024-01-16T02:07:28;99347.72;;;-12.82;76.66
84663;BME280;74891;59.208;18.220;2024-01-16T02:09:54;99303.94;;;-13.18;76.52
84663;BME280;74891;59.208;18.220;2024-01-16T02:12:33;99356.91;;;-12.92;76.19
84663;BME280;74891;59.208;18.220;2024-01-16T02:14:59;99336.38;;;-13.12;76.10
84663;BME280;74891;59.208;18.220;2024-01-16T02:17:28;99304.81;;;-13.42;76.21
84663;BME280;74891;59.208;18.220;2024-01-16T02:19:56;99358.47;;;-13.14;76.66
84663;BME280;74891;59.208;18.220;2024-01-16T02:22:26;99348.56;;;-13.17;76.44
84663;BME280;74891;59.208;18.220;2024-01-16T02:24:53;99300.53;;;-13.41;76.32
84663;BME280;74891;59.208;18.220;2024-01-16T02:27:19;99343.03;;;-13.22;76.20
84663;BME280;74891;59.208;18.220;2024-01-16T02:29:45;99350.63;;;-13.22;75.93
84663;BME280;74891;59.208;18.220;2024-01-16T02:32:15;99344.22;;;-13.26;76.02
84663;BME280;74891;59.208;18.220;2024-01-16T02:34:43;99353.88;;;-13.20;75.56
84663;BME280;74891;59.208;18.220;2024-01-16T02:37:08;99356.41;;;-13.20;75.65
84663;BME280;74891;59.208;18.220;2024-01-16T02:39:34;99299.47;;;-13.61;75.90
84663;BME280;74891;59.208;18.220;2024-01-16T02:42:07;99342.53;;;-13.50;75.56
84663;BME280;74891;59.208;18.220;2024-01-16T02:44:32;99364.69;;;-13.29;75.62
84663;BME280;74891;59.208;18.220;2024-01-16T02:47:01;99324.09;;;-13.52;75.91
84663;BME280;74891;59.208;18.220;2024-01-16T02:49:29;99364.00;;;-13.31;75.53
84663;BME280;74891;59.208;18.220;2024-01-16T02:52:00;99338.34;;;-13.62;75.78
84663;BME280;74891;59.208;18.220;2024-01-16T02:54:31;99387.16;;;-13.49;76.25
84663;BME280;74891;59.208;18.220;2024-01-16T02:56:56;99386.47;;;-13.51;76.00
84663;BME280;74891;59.208;18.220;2024-01-16T02:59:23;99385.06;;;-13.55;75.30
84663;BME280;74891;59.208;18.220;2024-01-16T03:02:01;99400.25;;;-13.55;75.46
84663;BME280;74891;59.208;18.220;2024-01-16T03:04:26;99393.19;;;-13.63;75.72
84663;BME280;74891;59.208;18.220;2024-01-16T03:06:55;99406.75;;;-13.64;75.81
84663;BME280;74891;59.208;18.220;2024-01-16T03:09:20;99408.88;;;-13.57;75.68
84663;BME280;74891;59.208;18.220;2024-01-16T03:11:48;99411.03;;;-13.64;75.97
84663;BME280;74891;59.208;18.220;2024-01-16T03:14:17;99413.88;;;-13.69;76.13
84663;BME280;74891;59.208;18.220;2024-01-16T03:16:43;99410.31;;;-13.66;75.07
84663;BME280;74891;59.208;18.220;2024-01-16T03:19:09;99419.16;;;-13.72;75.92
84663;BME280;74891;59.208;18.220;2024-01-16T03:21:35;99421.75;;;-13.73;75.48
84663;BME280;74891;59.208;18.220;2024-01-16T03:24:04;99415.53;;;-13.80;75.69
84663;BME280;74891;59.208;18.220;2024-01-16T03:26:37;99380.38;;;-14.09;75.11
84663;BME280;74891;59.208;18.220;2024-01-16T03:29:11;99416.34;;;-13.93;76.13
84663;BME280;74891;59.208;18.220;2024-01-16T03:31:36;99417.16;;;-13.92;76.12
84663;BME280;74891;59.208;18.220;2024-01-16T03:34:02;99361.63;;;-14.31;75.52
84663;BME280;74891;59.208;18.220;2024-01-16T03:36:28;99424.16;;;-13.96;75.72
84663;BME280;74891;59.208;18.220;2024-01-16T03:38:54;99430.13;;;-13.97;76.88
84663;BME280;74891;59.208;18.220;2024-01-16T03:41:25;99431.03;;;-13.98;76.28
84663;BME280;74891;59.208;18.220;2024-01-16T03:43:55;99435.41;;;-14.00;75.60
84663;BME280;74891;59.208;18.220;2024-01-16T03:46:27;99439.03;;;-14.04;76.01
84663;BME280;74891;59.208;18.220;2024-01-16T03:48:55;99428.94;;;-14.04;76.76
84663;BME280;74891;59.208;18.220;2024-01-16T03:51:24;99434.00;;;-14.04;76.16
84663;BME280;74891;59.208;18.220;2024-01-16T03:53:52;99438.53;;;-14.09;75.46
84663;BME280;74891;59.208;18.220;2024-01-16T03:56:18;99433.91;;;-14.15;76.07
84663;BME280;74891;59.208;18.220;2024-01-16T03:58:45;99449.16;;;-14.17;76.11
84663;BME280;74891;59.208;18.220;2024-01-16T04:01:11;99434.84;;;-14.16;76.82
84663;BME280;74891;59.208;18.220;2024-01-16T04:03:39;99445.13;;;-14.19;76.57
84663;BME280;74891;59.208;18.220;2024-01-16T04:06:17;99446.16;;;-14.22;76.21
84663;BME280;74891;59.208;18.220;2024-01-16T04:08:42;99396.88;;;-14.53;76.13
84663;BME280;74891;59.208;18.220;2024-01-16T04:11:12;99454.56;;;-14.21;77.12
84663;BME280;74891;59.208;18.220;2024-01-16T04:13:38;99454.63;;;-14.36;76.72
84663;BME280;74891;59.208;18.220;2024-01-16T04:16:04;99456.56;;;-14.26;76.32
84663;BME280;74891;59.208;18.220;2024-01-16T04:18:35;99424.41;;;-14.50;76.65
84663;BME280;74891;59.208;18.220;2024-01-16T04:21:01;99455.97;;;-14.30;76.44
84663;BME280;74891;59.208;18.220;2024-01-16T04:23:30;99452.03;;;-14.34;76.20
84663;BME280;74891;59.208;18.220;2024-01-16T04:25:58;99461.13;;;-14.32;76.06
84663;BME280;74891;59.208;18.220;2024-01-16T04:28:24;99466.91;;;-14.30;76.56
84663;BME280;74891;59.208;18.220;2024-01-16T04:30:54;99464.38;;;-14.30;76.81
84663;BME280;74891;59.208;18.220;2024-01-16T04:33:25;99468.63;;;-14.30;76.39
84663;BME280;74891;59.208;18.220;2024-01-16T04:35:56;99479.31;;;-14.26;76.10
84663;BME280;74891;59.208;18.220;2024-01-16T04:38:22;99489.94;;;-14.34;76.81
84663;BME280;74891;59.208;18.220;2024-01-16T04:40:51;99479.03;;;-14.35;76.98
84663;BME280;74891;59.208;18.220;2024-01-16T04:43:17;99489.66;;;-14.30;77.27
84663;BME280;74891;59.208;18.220;2024-01-16T04:45:42;99445.06;;;-14.56;76.10
84663;BME280;74891;59.208;18.220;2024-01-16T04:48:08;99427.06;;;-14.77;76.41
84663;BME280;74891;59.208;18.220;2024-01-16T04:50:34;99434.44;;;-14.74;76.94
84663;BME280;74891;59.208;18.220;2024-01-16T04:53:00;99482.75;;;-14.40;76.96
84663;BME280;74891;59.208;18.220;2024-01-16T04:55:32;99482.25;;;-14.45;77.22
84663;BME280;74891;59.208;18.220;2024-01-16T04:58:01;99486.38;;;-14.44;76.89
84663;BME280;74891;59.208;18.220;2024-01-16T05:00:26;99494.47;;;-14.39;76.61
84663;BME280;74891;59.208;18.220;2024-01-16T05:02:58;99445.53;;;-14.77;76.66
84663;BME280;74891;59.208;18.220;2024-01-16T05:05:26;99497.28;;;-14.44;76.57
84663;BME280;74891;59.208;18.220;2024-01-16T05:07:54;99488.19;;;-14.46;76.68
84663;BME280;74891;59.208;18.220;2024-01-16T05:10:25;99448.06;;;-14.77;76.97
84663;BME280;74891;59.208;18.220;2024-01-16T05:12:53;99501.75;;;-14.47;76.43
84663;BME280;74891;59.208;18.220;2024-01-16T05:15:24;99499.22;;;-14.60;76.76
84663;BME280;74891;59.208;18.220;2024-01-16T05:17:49;99506.44;;;-14.54;77.43
84663;BME280;74891;59.208;18.220;2024-01-16T05:20:15;99497.34;;;-14.57;77.22
84663;BME280;74891;59.208;18.220;2024-01-16T05:22:48;99508.84;;;-14.53;77.30
84663;BME280;74891;59.208;18.220;2024-01-16T05:25:22;99511.97;;;-14.49;77.44
84663;BME280;74891;59.208;18.220;2024-01-16T05:27:50;99519.44;;;-14.47;76.52
84663;BME280;74891;59.208;18.220;2024-01-16T05:30:19;99519.75;;;-14.52;77.43
84663;BME280;74891;59.208;18.220;2024-01-16T05:32:49;99516.31;;;-14.51;77.10
84663;BME280;74891;59.208;18.220;2024-01-16T05:35:15;99528.94;;;-14.51;76.71
84663;BME280;74891;59.208;18.220;2024-01-16T05:37:44;99531.19;;;-14.59;77.05
84663;BME280;74891;59.208;18.220;2024-01-16T05:40:16;99508.91;;;-14.80;76.22
84663;BME280;74891;59.208;18.220;2024-01-16T05:42:48;99534.91;;;-14.65;76.33
84663;BME280;74891;59.208;18.220;2024-01-16T05:45:16;99539.34;;;-14.68;75.99
84663;BME280;74891;59.208;18.220;2024-01-16T05:47:47;99542.16;;;-14.73;77.17
84663;BME280;74891;59.208;18.220;2024-01-16T05:50:12;99547.31;;;-14.75;76.29
84663;BME280;74891;59.208;18.220;2024-01-16T05:52:38;99553.97;;;-14.74;76.41
84663;BME280;74891;59.208;18.220;2024-01-16T05:55:11;99567.50;;;-14.75;77.23
84663;BME280;74891;59.208;18.220;2024-01-16T05:57:36;99565.78;;;-14.74;77.38
84663;BME280;74891;59.208;18.220;2024-01-16T06:00:05;99575.28;;;-14.78;76.40
84663;BME280;74891;59.208;18.220;2024-01-16T06:02:31;99569.81;;;-14.84;76.77
84663;BME280;74891;59.208;18.220;2024-01-16T06:04:59;99530.31;;;-15.12;76.22
84663;BME280;74891;59.208;18.220;2024-01-16T06:07:33;99578.00;;;-14.81;77.26
84663;BME280;74891;59.208;18.220;2024-01-16T06:10:04;99587.59;;;-14.86;75.83
84663;BME280;74891;59.208;18.220;2024-01-16T06:12:31;99596.88;;;-14.86;76.44
84663;BME280;74891;59.208;18.220;2024-01-16T06:14:56;99595.25;;;-14.87;75.98
84663;BME280;74891;59.208;18.220;2024-01-16T06:17:23;99585.06;;;-14.86;76.38
84663;BME280;74891;59.208;18.220;2024-01-16T06:19:51;99583.72;;;-14.91;76.05
84663;BME280;74891;59.208;18.220;2024-01-16T06:22:25;99591.91;;;-14.88;75.84
84663;BME280;74891;59.208;18.220;2024-01-16T06:24:58;99559.72;;;-15.11;77.09
84663;BME280;74891;59.208;18.220;2024-01-16T06:27:26;99597.06;;;-14.89;76.63
84663;BME280;74891;59.208;18.220;2024-01-16T06:29:57;99601.47;;;-14.93;76.70
84663;BME280;74891;59.208;18.220;2024-01-16T06:32:25;99607.38;;;-14.92;76.15
84663;BME280;74891;59.208;18.220;2024-01-16T06:34:54;99607.44;;;-14.94;76.47
84663;BME280;74891;59.208;18.220;2024-01-16T06:37:26;99599.44;;;-15.01;75.87
84663;BME280;74891;59.208;18.220;2024-01-16T06:40:09;99615.94;;;-14.95;76.71
84663;BME280;74891;59.208;18.220;2024-01-16T06:42:37;99598.63;;;-15.01;76.62
84663;BME280;74891;59.208;18.220;2024-01-16T06:45:03;99605.38;;;-15.02;76.10
84663;BME280;74891;59.208;18.220;2024-01-16T06:47:28;99622.88;;;-14.99;77.04
84663;BME280;74891;59.208;18.220;2024-01-16T06:50:01;99620.44;;;-15.00;76.72
84663;BME280;74891;59.208;18.220;2024-01-16T06:52:31;99620.00;;;-15.07;76.21
84663;BME280;74891;59.208;18.220;2024-01-16T06:54:56;99631.09;;;-15.09;76.76
84663;BME280;74891;59.208;18.220;2024-01-16T06:57:24;99628.69;;;-15.11;76.18
84663;BME280;74891;59.208;18.220;2024-01-16T06:59:51;99629.56;;;-15.12;76.97
84663;BME280;74891;59.208;18.220;2024-01-16T07:02:22;99626.16;;;-15.11;76.30
84663;BME280;74891;59.208;18.220;2024-01-16T07:04:49;99618.13;;;-15.18;76.57
84663;BME280;74891;59.208;18.220;2024-01-16T07:07:17;99636.31;;;-15.12;76.68
84663;BME280;74891;59.208;18.220;2024-01-16T07:09:45;99631.47;;;-15.15;76.50
84663;BME280;74891;59.208;18.220;2024-01-16T07:12:15;99544.03;;;-15.72;76.94
84663;BME280;74891;59.208;18.220;2024-01-16T07:14:41;99639.13;;;-15.17;76.41
84663;BME280;74891;59.208;18.220;2024-01-16T07:17:10;99657.97;;;-15.08;76.89
84663;BME280;74891;59.208;18.220;2024-01-16T07:19:38;99654.19;;;-15.15;77.09
84663;BME280;74891;59.208;18.220;2024-01-16T07:22:06;99659.97;;;-15.13;77.09
84663;BME280;74891;59.208;18.220;2024-01-16T07:24:31;99662.13;;;-15.07;77.26
84663;BME280;74891;59.208;18.220;2024-01-16T07:27:02;99671.41;;;-15.08;76.55
84663;BME280;74891;59.208;18.220;2024-01-16T07:29:28;99668.88;;;-15.08;76.54
84663;BME280;74891;59.208;18.220;2024-01-16T07:31:58;99677.06;;;-15.04;75.89
84663;BME280;74891;59.208;18.220;2024-01-16T07:34:24;99669.50;;;-15.04;76.35
84663;BME280;74891;59.208;18.220;2024-01-16T07:36:50;99664.63;;;-15.07;76.38
84663;BME280;74891;59.208;18.220;2024-01-16T07:39:22;99667.25;;;-15.09;76.23
84663;BME280;74891;59.208;18.220;2024-01-16T07:41:50;99571.69;;;-15.71;76.03
84663;BME280;74891;59.208;18.220;2024-01-16T07:44:18;99654.91;;;-15.13;76.81
84663;BME280;74891;59.208;18.220;2024-01-16T07:46:44;99680.69;;;-15.08;76.66
84663;BME280;74891;59.208;18.220;2024-01-16T07:49:12;99679.78;;;-15.07;76.60
84663;BME280;74891;59.208;18.220;2024-01-16T07:51:38;99673.66;;;-15.03;76.58
84663;BME280;74891;59.208;18.220;2024-01-16T07:54:11;99676.19;;;-15.03;75.98
84663;BME280;74891;59.208;18.220;2024-01-16T07:56:40;99618.78;;;-15.43;75.53
84663;BME280;74891;59.208;18.220;2024-01-16T07:59:07;99677.44;;;-15.10;76.46
84663;BME280;74891;59.208;18.220;2024-01-16T08:01:32;99669.50;;;-15.04;76.29
84663;BME280;74891;59.208;18.220;2024-01-16T08:04:01;99665.19;;;-15.16;76.15
84663;BME280;74891;59.208;18.220;2024-01-16T08:06:29;99626.63;;;-15.33;75.88
84663;BME280;74891;59.208;18.220;2024-01-16T08:08:57;99673.94;;;-15.08;75.69
84663;BME280;74891;59.208;18.220;2024-01-16T08:11:25;99672.94;;;-15.05;76.17
84663;BME280;74891;59.208;18.220;2024-01-16T08:13:56;99681.41;;;-15.06;75.98
84663;BME280;74891;59.208;18.220;2024-01-16T08:16:27;99675.34;;;-15.04;75.93
84663;BME280;74891;59.208;18.220;2024-01-16T08:18:58;99682.94;;;-15.04;76.50
84663;BME280;74891;59.208;18.220;2024-01-16T08:21:26;99694.38;;;-14.98;76.12
84663;BME280;74891;59.208;18.220;2024-01-16T08:23:57;99699.97;;;-14.93;76.37
84663;BME280;74891;59.208;18.220;2024-01-16T08:26:25;99701.16;;;-14.84;76.17
84663;BME280;74891;59.208;18.220;2024-01-16T08:28:57;99691.31;;;-14.89;75.73
84663;BME280;74891;59.208;18.220;2024-01-16T08:31:25;99696.53;;;-14.78;75.79
84663;BME280;74891;59.208;18.220;2024-01-16T08:33:56;99634.16;;;-15.04;75.41
84663;BME280;74891;59.208;18.220;2024-01-16T08:36:24;99689.09;;;-14.66;75.15
84663;BME280;74891;59.208;18.220;2024-01-16T08:38:57;99654.13;;;-14.72;75.61
84663;BME280;74891;59.208;18.220;2024-01-16T08:41:34;99709.72;;;-14.18;74.96
84663;BME280;74891;59.208;18.220;2024-01-16T08:43:59;99716.84;;;-13.98;73.92
84663;BME280;74891;59.208;18.220;2024-01-16T08:46:24;99717.88;;;-13.88;73.28
84663;BME280;74891;59.208;18.220;2024-01-16T08:48:55;99712.06;;;-13.75;72.70
84663;BME280;74891;59.208;18.220;2024-01-16T08:51:23;99654.31;;;-13.96;73.10
84663;BME280;74891;59.208;18.220;2024-01-16T08:53:51;99718.16;;;-13.40;71.99
84663;BME280;74891;59.208;18.220;2024-01-16T08:56:25;99712.47;;;-13.30;71.91
84663;BME280;74891;59.208;18.220;2024-01-16T08:58:51;99722.97;;;-13.11;70.63
84663;BME280;74891;59.208;18.220;2024-01-16T09:01:16;99684.00;;;-13.21;70.35
84663;BME280;74891;59.208;18.220;2024-01-16T09:03:46;99736.97;;;-12.92;69.48
84663;BME280;74891;59.208;18.220;2024-01-16T09:06:15;99710.31;;;-12.98;69.33
84663;BME280;74891;59.208;18.220;2024-01-16T09:08:43;99731.38;;;-12.72;69.38
84663;BME280;74891;59.208;18.220;2024-01-16T09:11:14;99736.31;;;-12.70;68.82
84663;BME280;74891;59.208;18.220;2024-01-16T09:13:42;99734.63;;;-12.83;69.52
84663;BME280;74891;59.208;18.220;2024-01-16T09:16:08;99734.13;;;-12.75;68.60
84663;BME280;74891;59.208;18.220;2024-01-16T09:18:36;99723.41;;;-12.91;68.71
84663;BME280;74891;59.208;18.220;2024-01-16T09:21:04;99699.28;;;-13.10;69.14
84663;BME280;74891;59.208;18.220;2024-01-16T09:23:30;99743.84;;;-12.82;69.34
84663;BME280;74891;59.208;18.220;2024-01-16T09:26:01;99753.03;;;-12.68;69.44
84663;BME280;74891;59.208;18.220;2024-01-16T09:28:29;99755.94;;;-12.48;69.42
84663;BME280;74891;59.208;18.220;2024-01-16T09:30:57;99744.78;;;-12.46;67.87
84663;BME280;74891;59.208;18.220;2024-01-16T09:33:26;99760.78;;;-12.33;67.56
84663;BME280;74891;59.208;18.220;2024-01-16T09:35:58;99758.91;;;-12.18;66.68
84663;BME280;74891;59.208;18.220;2024-01-16T09:38:27;99768.38;;;-11.85;66.83
84663;BME280;74891;59.208;18.220;2024-01-16T09:40:54;99763.59;;;-11.65;65.64
84663;BME280;74891;59.208;18.220;2024-01-16T09:43:26;99744.06;;;-11.41;64.75
84663;BME280;74891;59.208;18.220;2024-01-16T09:45:52;99756.69;;;-11.05;64.17
84663;BME280;74891;59.208;18.220;2024-01-16T09:48:19;99765.25;;;-10.73;64.30
84663;BME280;74891;59.208;18.220;2024-01-16T09:50:47;99776.81;;;-10.46;63.02
84663;BME280;74891;59.208;18.220;2024-01-16T09:53:13;99770.44;;;-10.40;62.01
84663;BME280;74891;59.208;18.220;2024-01-16T09:55:38;99768.13;;;-10.32;62.04
84663;BME280;74891;59.208;18.220;2024-01-16T09:58:05;99729.00;;;-10.75;61.13
84663;BME280;74891;59.208;18.220;2024-01-16T10:00:33;99767.59;;;-10.47;60.42
84663;BME280;74891;59.208;18.220;2024-01-16T10:03:00;99781.88;;;-10.35;60.81
84663;BME280;74891;59.208;18.220;2024-01-16T10:05:26;99785.09;;;-10.21;60.91
84663;BME280;74891;59.208;18.220;2024-01-16T10:07:52;99778.22;;;-10.10;61.54
84663;BME280;74891;59.208;18.220;2024-01-16T10:10:18;99781.56;;;-9.98;60.25
84663;BME280;74891;59.208;18.220;2024-01-16T10:12:46;99741.09;;;-10.01;59.89
84663;BME280;74891;59.208;18.220;2024-01-16T10:15:14;99772.09;;;-9.75;58.92
84663;BME280;74891;59.208;18.220;2024-01-16T10:17:42;99753.84;;;-9.80;59.39
84663;BME280;74891;59.208;18.220;2024-01-16T10:20:09;99781.25;;;-9.72;59.51
84663;BME280;74891;59.208;18.220;2024-01-16T10:22:39;99784.56;;;-9.93;60.28
84663;BME280;74891;59.208;18.220;2024-01-16T10:27:31;99740.28;;;-10.34;61.30
84663;BME280;74891;59.208;18.220;2024-01-16T10:29:58;99741.22;;;-10.57;59.12
84663;BME280;74891;59.208;18.220;2024-01-16T10:32:28;99791.63;;;-10.51;60.70
84663;BME280;74891;59.208;18.220;2024-01-16T10:35:12;99791.63;;;-10.74;61.82
84663;BME280;74891;59.208;18.220;2024-01-16T10:40:09;99797.50;;;-10.96;62.31
84663;BME280;74891;59.208;18.220;2024-01-16T10:42:36;99804.75;;;-11.02;63.86
84663;BME280;74891;59.208;18.220;2024-01-16T10:45:02;99808.91;;;-11.12;63.44
84663;BME280;74891;59.208;18.220;2024-01-16T10:47:28;99792.78;;;-11.35;63.60
84663;BME280;74891;59.208;18.220;2024-01-16T10:49:56;99790.00;;;-11.44;64.02
84663;BME280;74891;59.208;18.220;2024-01-16T10:52:27;99796.06;;;-11.57;64.13
84663;BME280;74891;59.208;18.220;2024-01-16T10:54:56;99791.44;;;-11.64;64.74
84663;BME280;74891;59.208;18.220;2024-01-16T10:57:25;99784.91;;;-11.79;64.06
84663;BME280;74891;59.208;18.220;2024-01-16T11:00:06;99800.22;;;-11.92;65.65
84663;BME280;74891;59.208;18.220;2024-01-16T11:02:46;99794.88;;;-12.00;65.35
84663;BME280;74891;59.208;18.220;2024-01-16T11:05:15;99792.75;;;-12.06;65.68
84663;BME280;74891;59.208;18.220;2024-01-16T11:07:46;99799.34;;;-12.03;65.53
84663;BME280;74891;59.208;18.220;2024-01-16T11:10:12;99738.28;;;-12.37;65.08
84663;BME280;74891;59.208;18.220;2024-01-16T11:12:38;99794.22;;;-12.15;65.65
84663;BME280;74891;59.208;18.220;2024-01-16T11:15:08;99794.00;;;-12.12;66.64
84663;BME280;74891;59.208;18.220;2024-01-16T11:17:37;99791.25;;;-12.09;66.09
84663;BME280;74891;59.208;18.220;2024-01-16T11:20:04;99780.88;;;-12.06;65.92
84663;BME280;74891;59.208;18.220;2024-01-16T11:22:38;99786.00;;;-11.94;65.95
84663;BME280;74891;59.208;18.220;2024-01-16T11:25:13;99789.47;;;-11.95;65.28
84663;BME280;74891;59.208;18.220;2024-01-16T11:27:40;99782.38;;;-12.03;65.42
84663;BME280;74891;59.208;18.220;2024-01-16T11:30:11;99693.91;;;-12.56;65.34
84663;BME280;74891;59.208;18.220;2024-01-16T11:32:42;99785.19;;;-11.95;65.64
84663;BME280;74891;59.208;18.220;2024-01-16T11:35:13;99775.06;;;-11.95;65.73
84663;BME280;74891;59.208;18.220;2024-01-16T11:37:41;99782.13;;;-11.87;65.50
84663;BME280;74891;59.208;18.220;2024-01-16T11:40:20;99781.06;;;-11.85;65.56
84663;BME280;74891;59.208;18.220;2024-01-16T11:42:50;99783.59;;;-11.85;65.53
84663;BME280;74891;59.208;18.220;2024-01-16T11:48:11;99777.28;;;-11.90;65.74
84663;BME280;74891;59.208;18.220;2024-01-16T11:50:40;99785.22;;;-11.84;66.25
84663;BME280;74891;59.208;18.220;2024-01-16T11:53:47;99783.97;;;-11.78;65.52
84663;BME280;74891;59.208;18.220;2024-01-16T12:01:31;99801.03;;;-11.91;65.11
84663;BME280;74891;59.208;18.220;2024-01-16T12:06:36;99803.69;;;-11.93;65.62
84663;BME280;74891;59.208;18.220;2024-01-16T12:09:15;99795.97;;;-11.91;65.38
84663;BME280;74891;59.208;18.220;2024-01-16T12:11:41;99791.31;;;-11.97;65.95
84663;BME280;74891;59.208;18.220;2024-01-16T12:14:13;99802.97;;;-11.95;65.03
84663;BME280;74891;59.208;18.220;2024-01-16T12:16:39;99748.91;;;-12.32;65.57
84663;BME280;74891;59.208;18.220;2024-01-16T12:19:08;99798.00;;;-11.96;65.02
84663;BME280;74891;59.208;18.220;2024-01-16T12:21:59;99799.13;;;-12.00;64.87
84663;BME280;74891;59.208;18.220;2024-01-16T12:24:28;99749.59;;;-12.30;64.10
84663;BME280;74891;59.208;18.220;2024-01-16T12:26:57;99788.72;;;-12.09;64.64
84663;BME280;74891;59.208;18.220;2024-01-16T12:29:24;99794.97;;;-12.01;64.28
84663;BME280;74891;59.208;18.220;2024-01-16T12:31:50;99796.53;;;-12.12;64.16
84663;BME280;74891;59.208;18.220;2024-01-16T12:34:22;99785.47;;;-12.11;64.98
84663;BME280;74891;59.208;18.220;2024-01-16T12:37:04;99747.00;;;-12.41;64.90
84663;BME280;74891;59.208;18.220;2024-01-16T12:39:30;99792.16;;;-12.10;63.60
84663;BME280;74891;59.208;18.220;2024-01-16T12:41:56;99800.81;;;-12.12;64.38
84663;BME280;74891;59.208;18.220;2024-01-16T12:44:27;99802.94;;;-12.19;64.59
84663;BME280;74891;59.208;18.220;2024-01-16T12:46:56;99797.06;;;-12.19;64.11
84663;BME280;74891;59.208;18.220;2024-01-16T12:49:30;99802.53;;;-12.13;64.88
84663;BME280;74891;59.208;18.220;2024-01-16T12:52:25;99798.84;;;-12.09;64.79
84663;BME280;74891;59.208;18.220;2024-01-16T12:55:01;99809.72;;;-12.07;64.66
84663;BME280;74891;59.208;18.220;2024-01-16T12:57:28;99806.69;;;-12.12;64.17
84663;BME280;74891;59.208;18.220;2024-01-16T12:59:54;99767.88;;;-12.38;64.20
84663;BME280;74891;59.208;18.220;2024-01-16T13:02:23;99814.50;;;-12.15;65.09
84663;BME280;74891;59.208;18.220;2024-01-16T13:05:01;99816.34;;;-12.17;63.65